Time;durP1;ratioP1;P1;durP2;ratioP2;P2;SDS_P1;SDS_P2;PMS_P1;PMS_P2;Temp;Humidity;BMP_temperature;BMP_pressure;BME280_temperature;BME280_humidity;BME280_pressure;Samples;Min_cycle;Max_cycle;Signal;HPM_P1;HPM_P2
2021/07/31 00:02:18;;;;;;;5.13;2.63;;;20.00;94.00;;;;;;5058820;28;20449;-71
2021/07/31 00:05:04;;;;;;;4.53;3.13;;;19.80;92.80;;;;;;5049776;28;20578;-71
2021/07/31 00:07:49;;;;;;;5.90;2.97;;;19.70;93.70;;;;;;5058018;28;20451;-71
2021/07/31 00:10:37;;;;;;;3.63;2.70;;;19.80;94.10;;;;;;5061342;28;20427;-71
2021/07/31 00:13:23;;;;;;;3.40;2.30;;;19.90;93.70;;;;;;5057809;28;20885;-71
2021/07/31 00:16:09;;;;;;;8.03;3.07;;;19.80;93.10;;;;;;5046352;28;20551;-71
2021/07/31 00:18:55;;;;;;;3.90;2.40;;;19.80;92.90;;;;;;5050902;28;20488;-72
2021/07/31 00:21:41;;;;;;;6.63;2.33;;;19.70;91.20;;;;;;5064038;28;20491;-71
2021/07/31 00:24:26;;;;;;;5.37;2.40;;;19.80;90.60;;;;;;5061394;28;20452;-71
2021/07/31 00:27:13;;;;;;;5.97;1.87;;;19.80;90.50;;;;;;5061390;28;20569;-71
2021/07/31 00:29:59;;;;;;;8.33;2.30;;;19.80;90.20;;;;;;5061924;28;20401;-71
2021/07/31 00:32:45;;;;;;;8.37;3.10;;;19.80;86.30;;;;;;5055506;28;20422;-71
2021/07/31 00:35:31;;;;;;;4.57;1.90;;;19.70;89.60;;;;;;5055537;28;20476;-71
2021/07/31 00:38:16;;;;;;;6.10;2.40;;;19.70;90.70;;;;;;5056651;28;20485;-71
2021/07/31 00:41:02;;;;;;;4.50;2.00;;;19.50;87.60;;;;;;5051641;28;20573;-71
2021/07/31 00:43:49;;;;;;;5.83;1.90;;;19.50;87.00;;;;;;5054141;28;20485;-71
2021/07/31 00:46:35;;;;;;;8.90;2.37;;;19.50;86.40;;;;;;5052318;28;20430;-71
2021/07/31 00:49:21;;;;;;;9.00;2.03;;;19.40;85.60;;;;;;5060982;28;20459;-71
2021/07/31 00:52:07;;;;;;;7.20;2.17;;;19.40;85.00;;;;;;5046468;28;20454;-71
2021/07/31 00:54:56;;;;;;;6.87;2.77;;;19.40;84.90;;;;;;5046287;28;20458;-72
2021/07/31 00:57:45;;;;;;;9.63;1.87;;;19.40;87.00;;;;;;5066390;28;20425;-71
2021/07/31 01:00:32;;;;;;;4.57;1.90;;;19.50;88.00;;;;;;5066871;28;21060;-71
2021/07/31 01:03:18;;;;;;;7.50;2.33;;;19.40;90.00;;;;;;5051159;28;20568;-71
2021/07/31 01:06:05;;;;;;;5.00;1.97;;;19.30;89.90;;;;;;5054490;28;20516;-71
2021/07/31 01:08:50;;;;;;;4.77;2.10;;;19.20;91.00;;;;;;5050172;28;20496;-71
2021/07/31 01:11:37;;;;;;;6.43;2.00;;;19.20;90.80;;;;;;5061775;28;20792;-71
2021/07/31 01:14:22;;;;;;;5.30;2.07;;;19.00;90.90;;;;;;5060436;28;20478;-71
2021/07/31 01:17:11;;;;;;;5.73;1.70;;;18.80;92.90;;;;;;5058866;28;20945;-72
2021/07/31 01:19:57;;;;;;;7.30;2.10;;;18.60;93.20;;;;;;5052570;28;20593;-72
2021/07/31 01:22:44;;;;;;;10.57;2.13;;;18.50;93.90;;;;;;5050799;28;20449;-71
2021/07/31 01:25:30;;;;;;;8.70;1.87;;;18.30;94.50;;;;;;5051106;28;20457;-72
2021/07/31 01:28:16;;;;;;;3.30;1.70;;;18.10;94.60;;;;;;5053237;28;20872;-72
2021/07/31 01:31:01;;;;;;;6.03;2.00;;;18.10;95.20;;;;;;5061296;28;20546;-71
2021/07/31 01:33:47;;;;;;;6.53;2.00;;;17.90;95.80;;;;;;5061108;28;20901;-72
2021/07/31 01:36:33;;;;;;;4.50;2.00;;;17.80;96.50;;;;;;5059419;28;20425;-71
2021/07/31 01:39:20;;;;;;;7.77;2.30;;;17.70;97.10;;;;;;5061856;28;20449;-71
2021/07/31 01:42:07;;;;;;;7.50;2.10;;;17.70;97.80;;;;;;5051726;28;20467;-72
2021/07/31 01:44:53;;;;;;;5.60;2.00;;;17.50;98.00;;;;;;5059107;28;20572;-72
2021/07/31 01:47:40;;;;;;;4.40;2.30;;;17.40;98.20;;;;;;5066206;28;20488;-72
2021/07/31 01:50:26;;;;;;;6.13;2.77;;;17.40;98.60;;;;;;5060528;28;20467;-71
2021/07/31 01:53:12;;;;;;;3.90;1.83;;;17.40;99.30;;;;;;5049413;28;20476;-73
2021/07/31 01:55:59;;;;;;;7.03;2.20;;;17.40;99.40;;;;;;5053733;28;20409;-73
2021/07/31 01:58:45;;;;;;;6.77;2.00;;;17.40;99.90;;;;;;5050284;28;20576;-74
2021/07/31 02:01:31;;;;;;;3.97;2.27;;;17.40;99.90;;;;;;5051404;28;20455;-74
2021/07/31 02:04:16;;;;;;;6.23;2.00;;;17.30;99.90;;;;;;5059217;28;20446;-74
2021/07/31 02:07:02;;;;;;;9.80;2.57;;;17.40;99.90;;;;;;5056784;28;20550;-74
2021/07/31 02:09:48;;;;;;;6.93;2.20;;;17.30;99.90;;;;;;5055551;28;20433;-74
2021/07/31 02:12:35;;;;;;;5.23;1.97;;;17.30;99.90;;;;;;5071543;28;20488;-74
2021/07/31 02:15:21;;;;;;;8.17;1.80;;;17.30;99.90;;;;;;5057074;28;20858;-74
2021/07/31 02:18:07;;;;;;;6.20;2.53;;;17.20;99.90;;;;;;5057907;28;20469;-74
2021/07/31 02:20:52;;;;;;;3.30;1.90;;;17.10;99.90;;;;;;5060096;28;20398;-75
2021/07/31 02:23:38;;;;;;;10.60;1.97;;;17.10;99.90;;;;;;5043301;28;20531;-75
2021/07/31 02:26:24;;;;;;;6.00;3.17;;;17.00;99.90;;;;;;5051091;28;20445;-75
2021/07/31 02:29:11;;;;;;;4.87;2.10;;;17.10;99.90;;;;;;5055018;28;20450;-75
2021/07/31 02:31:57;;;;;;;9.80;2.43;;;17.10;99.90;;;;;;5056540;28;20415;-74
2021/07/31 02:34:43;;;;;;;4.20;2.17;;;17.10;99.90;;;;;;5057085;28;20805;-75
2021/07/31 02:37:28;;;;;;;7.10;2.30;;;16.90;99.90;;;;;;5049398;28;20420;-73
2021/07/31 02:40:14;;;;;;;6.60;2.10;;;17.00;99.90;;;;;;5059792;28;20525;-74
2021/07/31 02:43:00;;;;;;;6.30;2.00;;;17.00;99.90;;;;;;5050297;28;20616;-74
2021/07/31 02:45:47;;;;;;;9.93;2.30;;;17.20;99.90;;;;;;5062933;28;20401;-74
2021/07/31 02:48:35;;;;;;;4.03;1.90;;;17.20;99.90;;;;;;5050148;28;20841;-74
2021/07/31 02:51:21;;;;;;;7.73;2.57;;;17.10;99.90;;;;;;5052601;28;20975;-73
2021/07/31 02:54:06;;;;;;;11.57;2.30;;;16.90;99.90;;;;;;5069169;22;20613;-75
2021/07/31 02:56:52;;;;;;;4.33;2.00;;;16.90;99.90;;;;;;5091057;28;20904;-75
2021/07/31 02:59:37;;;;;;;7.23;1.80;;;17.00;99.90;;;;;;5098455;28;21075;-75
2021/07/31 03:02:26;;;;;;;10.67;3.10;;;17.00;99.90;;;;;;5097623;28;20617;-75
2021/07/31 03:05:12;;;;;;;5.00;1.93;;;17.10;99.90;;;;;;5089991;28;20464;-75
2021/07/31 03:07:58;;;;;;;3.37;1.50;;;17.20;99.90;;;;;;5090386;28;20480;-74
2021/07/31 03:10:43;;;;;;;5.27;1.90;;;17.10;99.90;;;;;;5088982;28;20427;-74
2021/07/31 03:13:30;;;;;;;8.03;2.17;;;17.10;99.90;;;;;;5091331;28;20443;-74
2021/07/31 03:16:16;;;;;;;5.10;1.90;;;17.20;99.70;;;;;;5092189;28;20423;-75
2021/07/31 03:19:02;;;;;;;12.03;3.00;;;17.30;99.20;;;;;;5090287;28;20435;-75
2021/07/31 03:21:48;;;;;;;4.83;2.07;;;17.40;98.80;;;;;;5085476;28;20445;-75
2021/07/31 03:24:34;;;;;;;4.40;2.30;;;17.50;98.00;;;;;;5102371;28;20513;-75
2021/07/31 03:27:20;;;;;;;5.70;2.30;;;17.60;97.40;;;;;;5092840;28;20490;-75
2021/07/31 03:30:06;;;;;;;8.20;2.17;;;17.70;97.90;;;;;;5093894;28;20507;-75
2021/07/31 03:32:53;;;;;;;6.13;2.00;;;17.70;98.10;;;;;;5095738;28;20452;-76
2021/07/31 03:35:42;;;;;;;8.53;2.27;;;17.70;99.10;;;;;;5103868;28;20472;-76
2021/07/31 03:38:27;;;;;;;3.90;2.03;;;17.50;99.00;;;;;;5096954;28;20422;-75
2021/07/31 03:41:13;;;;;;;5.40;1.60;;;17.50;99.60;;;;;;5089614;28;20427;-75
2021/07/31 03:43:59;;;;;;;14.27;2.50;;;17.50;99.90;;;;;;5098064;28;20450;-75
2021/07/31 03:46:45;;;;;;;4.80;2.40;;;17.40;99.90;;;;;;5081326;28;20449;-76
2021/07/31 03:49:32;;;;;;;6.23;2.10;;;17.30;99.90;;;;;;5109246;28;20482;-75
2021/07/31 03:52:20;;;;;;;5.57;1.67;;;17.20;99.90;;;;;;5098613;28;20452;-75
2021/07/31 03:55:06;;;;;;;3.83;1.87;;;17.10;99.90;;;;;;5070884;28;20591;-75
2021/07/31 03:57:52;;;;;;;6.43;2.20;;;17.20;99.90;;;;;;5086277;28;20457;-75
2021/07/31 04:00:39;;;;;;;9.87;2.50;;;17.20;99.90;;;;;;5102869;28;20448;-75
2021/07/31 04:03:25;;;;;;;5.97;2.10;;;17.00;99.90;;;;;;5098879;28;20473;-75
2021/07/31 04:06:11;;;;;;;8.00;2.90;;;16.70;99.90;;;;;;5103531;28;20451;-76
2021/07/31 04:08:58;;;;;;;6.83;2.40;;;16.60;99.90;;;;;;5090537;28;20455;-76
2021/07/31 04:11:43;;;;;;;10.53;2.57;;;16.70;99.90;;;;;;5097677;28;20439;-76
2021/07/31 04:14:30;;;;;;;4.47;1.80;;;16.70;99.90;;;;;;5103547;28;20448;-75
2021/07/31 04:17:16;;;;;;;4.70;1.83;;;16.60;99.90;;;;;;5100188;28;20935;-75
2021/07/31 04:20:01;;;;;;;6.57;1.70;;;16.50;99.90;;;;;;5091890;28;20450;-76
2021/07/31 04:22:47;;;;;;;4.53;2.13;;;16.50;99.90;;;;;;5097472;28;20476;-77
2021/07/31 04:25:37;;;;;;;5.03;2.30;;;16.40;99.90;;;;;;5108299;28;20419;-77
2021/07/31 04:28:23;;;;;;;7.60;2.97;;;16.30;99.90;;;;;;5111240;28;20448;-78
2021/07/31 04:31:10;;;;;;;6.73;2.00;;;16.40;99.90;;;;;;5093442;28;20435;-78
2021/07/31 04:33:56;;;;;;;4.00;1.73;;;16.40;99.90;;;;;;5105406;28;20522;-76
2021/07/31 04:36:42;;;;;;;5.33;2.27;;;16.30;99.90;;;;;;5107472;28;20407;-78
2021/07/31 04:39:28;;;;;;;3.33;1.67;;;16.30;99.90;;;;;;5100885;28;20461;-79
2021/07/31 04:42:15;;;;;;;5.20;1.83;;;16.30;99.90;;;;;;5098588;28;20846;-79
2021/07/31 04:45:00;;;;;;;4.37;2.00;;;16.30;99.90;;;;;;5104090;28;20472;-79
2021/07/31 04:47:46;;;;;;;6.80;2.20;;;16.40;99.90;;;;;;5103245;28;20451;-76
2021/07/31 04:50:32;;;;;;;6.43;2.00;;;16.30;99.90;;;;;;5097725;28;20505;-79
2021/07/31 04:53:18;;;;;;;6.90;2.00;;;16.40;99.90;;;;;;5108143;28;20457;-79
2021/07/31 04:56:03;;;;;;;5.10;2.13;;;16.50;99.90;;;;;;5101631;28;20437;-77
2021/07/31 04:58:50;;;;;;;3.50;1.93;;;16.50;99.90;;;;;;5103783;28;20984;-79
2021/07/31 05:01:36;;;;;;;5.50;2.03;;;16.50;99.90;;;;;;5097918;28;20419;-77
2021/07/31 05:04:22;;;;;;;9.60;2.13;;;16.50;99.90;;;;;;5108081;28;20480;-79
2021/07/31 05:07:09;;;;;;;15.23;2.57;;;16.60;99.90;;;;;;5101409;28;20429;-78
2021/07/31 05:09:55;;;;;;;7.10;2.27;;;16.70;99.90;;;;;;5106976;28;20506;-79
2021/07/31 05:12:41;;;;;;;6.17;2.40;;;16.80;99.90;;;;;;5095379;28;20445;-79
2021/07/31 05:15:28;;;;;;;8.27;2.17;;;16.80;99.90;;;;;;5106012;28;20813;-78
2021/07/31 05:18:14;;;;;;;4.30;2.50;;;16.90;99.90;;;;;;5110713;28;21013;-78
2021/07/31 05:21:00;;;;;;;8.73;2.10;;;17.10;99.90;;;;;;5111972;28;20444;-78
2021/07/31 05:23:46;;;;;;;5.10;2.30;;;17.20;99.90;;;;;;5100773;28;21021;-78
2021/07/31 05:26:31;;;;;;;5.87;2.40;;;17.40;99.90;;;;;;5102091;28;20514;-78
2021/07/31 05:29:17;;;;;;;7.80;2.73;;;17.60;99.90;;;;;;5096394;28;20456;-79
2021/07/31 05:32:05;;;;;;;8.10;1.90;;;17.70;99.90;;;;;;5100415;28;20467;-79
2021/07/31 05:34:55;;;;;;;5.87;2.20;;;17.90;99.90;;;;;;5097588;28;20985;-79
2021/07/31 05:37:40;;;;;;;8.00;2.47;;;18.00;99.90;;;;;;5099885;28;20630;-79
2021/07/31 05:40:26;;;;;;;5.73;2.30;;;18.10;99.90;;;;;;5103548;28;20427;-77
2021/07/31 05:43:11;;;;;;;8.80;2.17;;;18.20;99.90;;;;;;5100767;28;20503;-78
2021/07/31 05:45:57;;;;;;;3.50;2.00;;;18.20;99.90;;;;;;5096403;28;20551;-79
2021/07/31 05:48:44;;;;;;;10.37;2.70;;;18.30;99.90;;;;;;5113269;28;20437;-79
2021/07/31 05:51:30;;;;;;;10.00;2.33;;;18.30;99.90;;;;;;5110518;28;20435;-77
2021/07/31 05:54:16;;;;;;;7.40;2.30;;;18.40;99.90;;;;;;5106741;28;20478;-76
2021/07/31 05:57:01;;;;;;;4.40;2.10;;;18.50;99.90;;;;;;5097933;28;20412;-78
2021/07/31 05:59:48;;;;;;;4.60;2.00;;;18.60;99.90;;;;;;5101590;28;20399;-75
2021/07/31 06:02:33;;;;;;;11.33;2.47;;;18.60;99.80;;;;;;5082106;28;20445;-78
2021/07/31 06:05:21;;;;;;;5.10;1.80;;;18.50;97.70;;;;;;5099612;28;20606;-79
2021/07/31 06:08:06;;;;;;;15.83;2.37;;;18.30;97.90;;;;;;5088990;28;20464;-78
2021/07/31 06:10:58;;;;;;;8.90;2.23;;;18.40;97.50;;;;;;5087108;28;20572;-79
2021/07/31 06:13:44;;;;;;;5.70;1.70;;;18.30;97.90;;;;;;5104851;28;20469;-79
2021/07/31 06:16:30;;;;;;;5.93;2.33;;;18.50;98.60;;;;;;5104612;28;20809;-78
2021/07/31 06:19:15;;;;;;;14.40;2.50;;;18.70;98.50;;;;;;5105289;28;20826;-79
2021/07/31 06:22:04;;;;;;;8.77;2.80;;;18.70;95.20;;;;;;5100164;28;20453;-78
2021/07/31 06:24:50;;;;;;;8.23;2.37;;;18.70;95.50;;;;;;5087372;28;20476;-79
2021/07/31 06:27:35;;;;;;;4.43;1.87;;;18.80;95.90;;;;;;5106254;28;20430;-77
2021/07/31 06:30:21;;;;;;;7.80;2.37;;;18.80;94.90;;;;;;5109324;28;20452;-77
2021/07/31 06:33:07;;;;;;;7.20;2.20;;;18.90;96.40;;;;;;5100207;28;20435;-79
2021/07/31 06:35:53;;;;;;;3.50;1.90;;;19.00;94.80;;;;;;5091836;28;20468;-78
2021/07/31 06:38:40;;;;;;;4.47;2.40;;;19.10;94.80;;;;;;5104710;28;20443;-79
2021/07/31 06:41:26;;;;;;;11.67;2.50;;;19.10;95.00;;;;;;5095231;28;20440;-78
2021/07/31 06:44:12;;;;;;;10.03;2.47;;;19.30;94.90;;;;;;5101544;28;21301;-77
2021/07/31 06:46:58;;;;;;;6.73;2.57;;;19.40;94.70;;;;;;5095342;28;20458;-75
2021/07/31 06:49:43;;;;;;;8.43;2.30;;;19.30;93.50;;;;;;5103712;28;20453;-78
2021/07/31 06:52:29;;;;;;;5.00;2.20;;;19.20;94.20;;;;;;5098997;28;20506;-78
2021/07/31 06:55:16;;;;;;;12.30;2.87;;;19.30;94.30;;;;;;5107538;28;20607;-79
2021/07/31 06:58:02;;;;;;;6.50;1.93;;;19.50;95.00;;;;;;5080241;28;20499;-78
2021/07/31 07:00:48;;;;;;;6.13;2.20;;;19.50;94.10;;;;;;5100607;28;20578;-77
2021/07/31 07:03:33;;;;;;;6.00;2.33;;;19.50;94.60;;;;;;5108771;28;20443;-77
2021/07/31 07:06:21;;;;;;;8.30;2.73;;;19.60;95.00;;;;;;5100811;28;20769;-79
2021/07/31 07:09:06;;;;;;;9.10;2.10;;;19.70;93.80;;;;;;5105035;28;20445;-80
2021/07/31 07:11:53;;;;;;;12.83;2.70;;;19.70;92.40;;;;;;5104157;28;20382;-79
2021/07/31 07:14:39;;;;;;;14.07;2.20;;;19.80;93.30;;;;;;5105554;28;20440;-79
2021/07/31 07:17:25;;;;;;;3.97;1.80;;;20.00;91.70;;;;;;5098433;28;20423;-79
2021/07/31 07:20:11;;;;;;;9.83;2.30;;;20.20;90.50;;;;;;5098576;28;20541;-79
2021/07/31 07:22:56;;;;;;;10.40;3.17;;;20.10;86.30;;;;;;5101530;28;20454;-78
2021/07/31 07:25:43;;;;;;;4.67;1.80;;;20.20;86.10;;;;;;5112924;28;21073;-79
2021/07/31 07:28:30;;;;;;;6.53;1.93;;;20.10;85.20;;;;;;5106676;28;20478;-79
2021/07/31 07:31:16;;;;;;;6.17;2.13;;;20.20;88.00;;;;;;5102979;28;20448;-77
2021/07/31 07:34:01;;;;;;;4.40;1.83;;;20.30;86.20;;;;;;5108327;28;20439;-77
2021/07/31 07:36:47;;;;;;;5.73;1.60;;;20.10;84.00;;;;;;5098543;28;20521;-79
2021/07/31 07:39:33;;;;;;;10.47;2.27;;;20.00;83.90;;;;;;5103350;28;21275;-77
2021/07/31 07:42:18;;;;;;;7.10;2.20;;;20.00;86.20;;;;;;5106175;28;20898;-75
2021/07/31 07:45:07;;;;;;;6.37;1.90;;;20.00;83.90;;;;;;5107400;28;20512;-79
2021/07/31 07:47:52;;;;;;;6.40;2.00;;;20.00;85.50;;;;;;5095671;28;20569;-79
2021/07/31 07:50:38;;;;;;;6.93;2.20;;;20.20;88.20;;;;;;5108953;28;20446;-76
2021/07/31 07:53:23;;;;;;;6.20;2.27;;;20.20;86.10;;;;;;5107423;28;20416;-79
2021/07/31 07:56:09;;;;;;;4.87;2.10;;;20.30;87.00;;;;;;5102400;28;20776;-79
2021/07/31 07:58:57;;;;;;;6.77;1.60;;;20.40;85.00;;;;;;5097852;28;20443;-78
2021/07/31 08:01:44;;;;;;;8.90;2.20;;;20.40;84.20;;;;;;5104116;28;20498;-78
2021/07/31 08:04:33;;;;;;;7.53;2.50;;;20.50;84.30;;;;;;5094420;28;20484;-76
2021/07/31 08:07:18;;;;;;;7.90;1.97;;;20.60;81.70;;;;;;5096850;28;20568;-76
2021/07/31 08:10:05;;;;;;;6.10;2.50;;;20.70;79.90;;;;;;5098643;28;20530;-77
2021/07/31 08:12:51;;;;;;;4.10;1.87;;;20.70;80.30;;;;;;5103330;28;20421;-78
2021/07/31 08:15:37;;;;;;;4.53;1.43;;;20.50;76.40;;;;;;5110192;28;20543;-78
2021/07/31 08:18:24;;;;;;;10.50;2.27;;;20.50;79.10;;;;;;5100825;28;20411;-74
2021/07/31 08:21:09;;;;;;;11.30;2.30;;;20.60;81.50;;;;;;5099341;28;20434;-76
2021/07/31 08:23:55;;;;;;;12.60;2.20;;;20.70;78.30;;;;;;5091859;28;21142;-73
2021/07/31 08:26:41;;;;;;;11.20;2.17;;;20.80;74.70;;;;;;5090384;28;20453;-76
2021/07/31 08:29:26;;;;;;;6.33;2.30;;;20.70;76.20;;;;;;5093667;28;20418;-76
2021/07/31 08:32:12;;;;;;;12.27;2.00;;;20.80;78.10;;;;;;5090585;28;20432;-76
2021/07/31 08:35:00;;;;;;;3.50;1.90;;;20.80;78.50;;;;;;5102963;28;20465;-76
2021/07/31 08:37:45;;;;;;;8.03;1.80;;;21.00;79.10;;;;;;5094876;28;20457;-75
2021/07/31 08:40:31;;;;;;;4.13;1.73;;;21.00;75.40;;;;;;5100219;28;20473;-75
2021/07/31 08:43:16;;;;;;;4.50;2.30;;;21.20;76.80;;;;;;5104169;28;20432;-75
2021/07/31 08:46:05;;;;;;;6.33;2.10;;;21.10;74.20;;;;;;5093211;28;20770;-75
2021/07/31 08:48:53;;;;;;;7.40;2.50;;;21.20;77.40;;;;;;5084240;28;20825;-75
2021/07/31 08:51:42;;;;;;;6.30;1.80;;;21.10;74.90;;;;;;5093474;28;20486;-75
2021/07/31 08:57:01;;;;;;;4.87;2.57;;;21.20;75.60;;;;;;5047286;28;20467;-72
2021/07/31 08:59:47;;;;;;;5.27;2.13;;;21.20;76.40;;;;;;5057094;28;20423;-73
2021/07/31 09:02:42;;;;;;;8.17;2.17;;;21.10;75.50;;;;;;5064989;28;20874;-72
2021/07/31 09:05:32;;;;;;;7.17;2.13;;;21.20;76.90;;;;;;5058443;28;20473;-72
2021/07/31 09:08:19;;;;;;;8.00;3.07;;;21.20;74.50;;;;;;5033078;28;20914;-74
2021/07/31 09:11:05;;;;;;;8.33;2.47;;;21.10;73.30;;;;;;5064305;28;20432;-73
2021/07/31 09:14:09;;;;;;;6.27;2.23;;;21.30;74.80;;;;;;5032931;28;20399;-73
2021/07/31 09:16:56;;;;;;;12.33;2.40;;;21.30;74.50;;;;;;5033223;28;20397;-73
2021/07/31 09:19:45;;;;;;;12.00;2.17;;;21.20;73.50;;;;;;5050896;28;20969;-73
2021/07/31 09:22:31;;;;;;;4.77;2.00;;;21.20;75.00;;;;;;5050032;28;20461;-76
2021/07/31 09:25:18;;;;;;;10.50;2.20;;;21.20;73.30;;;;;;5047428;28;20479;-73
2021/07/31 09:28:18;;;;;;;4.23;1.90;;;21.20;73.70;;;;;;5047394;28;20423;-73
2021/07/31 09:31:04;;;;;;;4.57;2.23;;;21.10;72.80;;;;;;5053961;28;20498;-73
2021/07/31 09:33:50;;;;;;;3.43;1.60;;;21.00;72.80;;;;;;5064160;28;20964;-74
2021/07/31 09:36:38;;;;;;;9.67;2.17;;;21.10;72.40;;;;;;5058244;28;20562;-73
2021/07/31 09:39:24;;;;;;;8.33;2.40;;;21.00;72.50;;;;;;5062803;28;20443;-73
2021/07/31 09:42:26;;;;;;;4.27;2.00;;;20.90;71.70;;;;;;5050691;28;20522;-73
2021/07/31 09:45:13;;;;;;;4.40;1.97;;;21.00;74.30;;;;;;5055463;28;20452;-74
2021/07/31 09:48:00;;;;;;;18.97;2.20;;;21.10;74.40;;;;;;5042027;28;20448;-73
2021/07/31 09:50:48;;;;;;;5.60;1.83;;;21.30;70.90;;;;;;5039838;28;20988;-74
2021/07/31 09:53:33;;;;;;;6.80;2.40;;;21.40;70.80;;;;;;5050494;28;20447;-73
2021/07/31 09:56:19;;;;;;;5.10;2.37;;;21.40;70.40;;;;;;5046025;28;21113;-73
2021/07/31 09:59:07;;;;;;;6.30;2.17;;;21.40;70.30;;;;;;5047135;28;20468;-73
2021/07/31 10:01:59;;;;;;;4.70;2.13;;;21.30;68.30;;;;;;5058868;28;20482;-73
2021/07/31 10:04:46;;;;;;;5.80;2.00;;;21.30;71.00;;;;;;5057547;28;20443;-73
2021/07/31 10:07:32;;;;;;;10.50;2.70;;;21.30;65.60;;;;;;5059191;28;20464;-73
2021/07/31 10:10:18;;;;;;;8.70;2.83;;;21.20;65.90;;;;;;5053741;28;20456;-74
2021/07/31 10:13:04;;;;;;;10.37;2.90;;;21.30;67.20;;;;;;5056869;28;20422;-73
2021/07/31 10:15:52;;;;;;;3.80;1.63;;;21.50;69.80;;;;;;5056430;28;20581;-73
2021/07/31 10:18:38;;;;;;;6.17;2.20;;;21.70;68.30;;;;;;5064426;28;20460;-73
2021/07/31 10:21:24;;;;;;;3.03;1.80;;;21.90;67.20;;;;;;5056376;28;20945;-73
2021/07/31 10:24:10;;;;;;;5.53;2.20;;;22.10;62.50;;;;;;5062558;28;20583;-73
2021/07/31 10:27:24;;;;;;;4.40;2.20;;;22.10;64.30;;;;;;5056641;28;20434;-75
2021/07/31 10:30:28;;;;;;;19.23;2.20;;;22.20;61.50;;;;;;5049774;28;20946;-73
2021/07/31 10:33:46;;;;;;;6.73;2.90;;;22.30;59.50;;;;;;5056150;28;20596;-73
2021/07/31 10:36:33;;;;;;;4.83;1.60;;;22.20;59.60;;;;;;5052886;28;20459;-72
2021/07/31 10:39:42;;;;;;;4.40;2.23;;;22.10;61.70;;;;;;5058421;28;20448;-74
2021/07/31 10:42:49;;;;;;;3.90;1.90;;;22.00;59.30;;;;;;5045499;28;20584;-73
2021/07/31 10:45:35;;;;;;;7.83;2.23;;;21.90;60.50;;;;;;5053274;28;20467;-75
2021/07/31 10:48:37;;;;;;;6.77;2.07;;;21.80;61.90;;;;;;5056221;28;20436;-74
2021/07/31 10:51:43;;;;;;;5.77;2.20;;;21.80;61.50;;;;;;5053322;28;20479;-73
2021/07/31 10:55:00;;;;;;;5.80;2.00;;;21.90;63.40;;;;;;5050682;28;20439;-77
2021/07/31 10:58:05;;;;;;;3.73;2.23;;;22.00;61.60;;;;;;5052629;28;20451;-73
2021/07/31 11:00:52;;;;;;;7.87;1.90;;;22.10;62.20;;;;;;5042883;28;20444;-73
2021/07/31 11:03:42;;;;;;;4.37;2.20;;;22.20;60.60;;;;;;5053345;28;20584;-73
2021/07/31 11:06:28;;;;;;;4.77;1.80;;;22.30;62.90;;;;;;5054667;28;20450;-73
2021/07/31 11:09:15;;;;;;;5.53;2.00;;;22.60;59.50;;;;;;5058173;28;20410;-73
2021/07/31 11:12:38;;;;;;;3.23;1.83;;;22.70;59.50;;;;;;5048061;28;20821;-74
2021/07/31 11:15:24;;;;;;;5.33;2.50;;;22.50;59.50;;;;;;5038023;28;20841;-74
2021/07/31 11:18:10;;;;;;;4.10;1.70;;;22.60;61.00;;;;;;5049182;28;20840;-74
2021/07/31 11:20:56;;;;;;;8.23;2.07;;;22.80;58.40;;;;;;5044660;28;20448;-73
2021/07/31 11:23:45;;;;;;;3.87;1.90;;;22.90;56.80;;;;;;5041518;28;20908;-74
2021/07/31 11:26:38;;;;;;;4.00;1.90;;;22.90;55.20;;;;;;5049735;28;20457;-74
2021/07/31 11:29:25;;;;;;;3.67;2.00;;;22.60;56.10;;;;;;5047217;28;20444;-74
2021/07/31 11:32:12;;;;;;;10.33;2.10;;;22.40;55.90;;;;;;5057561;28;20522;-73
2021/07/31 11:34:58;;;;;;;8.20;3.00;;;22.30;58.20;;;;;;5038128;28;20468;-75
2021/07/31 11:37:43;;;;;;;20.57;2.80;;;22.50;60.90;;;;;;5048256;28;20426;-73
2021/07/31 11:40:29;;;;;;;23.03;4.70;;;22.70;57.50;;;;;;5047329;28;20880;-74
2021/07/31 11:43:16;;;;;;;8.03;2.90;;;22.80;56.80;;;;;;5044619;28;20418;-74
2021/07/31 11:46:02;;;;;;;8.70;2.50;;;23.10;60.90;;;;;;5046851;28;20454;-74
2021/07/31 11:48:47;;;;;;;9.67;2.33;;;23.20;53.40;;;;;;5045698;28;20928;-74
2021/07/31 11:51:34;;;;;;;5.50;2.10;;;23.10;55.10;;;;;;5045121;28;20423;-75
2021/07/31 11:54:20;;;;;;;8.47;3.60;;;23.00;53.50;;;;;;5044927;28;20602;-74
2021/07/31 11:57:06;;;;;;;6.30;2.20;;;23.20;58.40;;;;;;5041727;28;21270;-73
2021/07/31 11:59:53;;;;;;;4.33;2.00;;;23.30;56.50;;;;;;5047532;28;20443;-74
2021/07/31 12:02:39;;;;;;;4.97;1.70;;;23.20;55.80;;;;;;5043896;28;20856;-73
2021/07/31 12:05:38;;;;;;;3.17;2.23;;;22.90;54.20;;;;;;5041811;28;20468;-73
2021/07/31 12:08:47;;;;;;;5.80;2.27;;;23.00;54.10;;;;;;5038517;28;20514;-74
2021/07/31 12:11:37;;;;;;;8.33;2.40;;;23.10;56.60;;;;;;5050280;28;20444;-75
2021/07/31 12:14:37;;;;;;;5.03;2.40;;;23.30;54.20;;;;;;5047744;28;20467;-74
2021/07/31 12:17:25;;;;;;;30.53;6.50;;;23.40;54.20;;;;;;5055894;28;20432;-74
2021/07/31 12:20:10;;;;;;;8.20;2.30;;;23.80;55.80;;;;;;5047010;28;20452;-74
2021/07/31 12:22:56;;;;;;;3.60;2.10;;;24.20;52.50;;;;;;5056563;28;20528;-74
2021/07/31 12:25:57;;;;;;;3.30;1.70;;;24.30;51.40;;;;;;5054216;28;20544;-73
2021/07/31 12:28:44;;;;;;;5.50;1.97;;;24.40;51.70;;;;;;5058450;28;20861;-73
2021/07/31 12:31:31;;;;;;;3.60;1.40;;;24.30;49.40;;;;;;5059773;28;20438;-73
2021/07/31 12:34:20;;;;;;;4.67;1.90;;;24.20;50.40;;;;;;5049540;28;20474;-74
2021/07/31 12:37:05;;;;;;;6.33;2.13;;;23.90;50.20;;;;;;5061951;28;20428;-73
2021/07/31 12:39:54;;;;;;;3.77;1.83;;;23.90;50.90;;;;;;5059201;28;20486;-75
2021/07/31 12:42:40;;;;;;;3.90;2.00;;;23.90;49.70;;;;;;5058135;28;20461;-73
2021/07/31 12:45:27;;;;;;;4.57;2.00;;;23.60;50.40;;;;;;5055540;28;20475;-74
2021/07/31 12:48:13;;;;;;;6.63;1.90;;;23.70;50.20;;;;;;5048428;28;20457;-73
2021/07/31 12:51:03;;;;;;;5.00;2.70;;;23.60;50.70;;;;;;5055269;28;20396;-74
2021/07/31 12:53:49;;;;;;;6.20;1.87;;;23.30;52.80;;;;;;5057154;28;20449;-74
2021/07/31 12:56:34;;;;;;;3.83;1.90;;;23.20;52.30;;;;;;5052769;28;20519;-73
2021/07/31 12:59:20;;;;;;;4.47;2.50;;;23.30;53.20;;;;;;5054433;28;20906;-74
2021/07/31 13:02:05;;;;;;;5.37;1.60;;;23.30;53.70;;;;;;5049517;28;21355;-74
2021/07/31 13:04:51;;;;;;;3.33;1.93;;;23.30;53.60;;;;;;5053541;28;20488;-75
2021/07/31 13:07:38;;;;;;;3.80;2.10;;;23.20;52.70;;;;;;5044244;28;20506;-74
2021/07/31 13:10:24;;;;;;;11.90;2.27;;;22.90;51.50;;;;;;5051737;28;20470;-74
2021/07/31 13:13:11;;;;;;;5.40;2.00;;;23.00;53.40;;;;;;5058599;28;20521;-74
2021/07/31 13:15:57;;;;;;;4.97;1.87;;;23.10;53.20;;;;;;5043045;28;20535;-75
2021/07/31 13:18:42;;;;;;;6.20;1.73;;;22.90;52.30;;;;;;5039762;28;20448;-74
2021/07/31 13:21:28;;;;;;;6.90;2.10;;;22.90;53.10;;;;;;5049321;28;20812;-74
2021/07/31 13:24:15;;;;;;;10.73;2.23;;;22.80;52.00;;;;;;5065337;28;20562;-74
2021/07/31 13:27:01;;;;;;;3.80;2.00;;;22.80;50.40;;;;;;5045566;28;20499;-74
2021/07/31 13:29:46;;;;;;;4.50;2.27;;;22.70;51.30;;;;;;5055917;28;20446;-73
2021/07/31 13:32:32;;;;;;;5.90;1.80;;;22.70;52.10;;;;;;5051924;28;20424;-73
2021/07/31 13:35:18;;;;;;;3.97;1.90;;;22.80;50.70;;;;;;5051664;28;20458;-74
2021/07/31 13:38:03;;;;;;;4.27;1.97;;;22.80;50.70;;;;;;5050160;28;20421;-75
2021/07/31 13:40:52;;;;;;;6.90;2.63;;;23.00;51.10;;;;;;5054095;28;20431;-75
2021/07/31 13:43:38;;;;;;;5.90;1.93;;;23.10;50.30;;;;;;5055263;28;20959;-74
2021/07/31 13:46:23;;;;;;;6.70;1.90;;;22.90;50.00;;;;;;5059331;28;20469;-74
2021/07/31 13:49:09;;;;;;;3.87;2.00;;;22.80;50.80;;;;;;5050742;28;20458;-74
2021/07/31 13:51:55;;;;;;;8.13;1.70;;;22.80;52.00;;;;;;5052579;28;20517;-75
2021/07/31 13:54:40;;;;;;;5.30;1.77;;;22.70;51.00;;;;;;5054234;28;20447;-74
2021/07/31 13:57:28;;;;;;;4.77;1.80;;;22.80;51.00;;;;;;5055493;28;20516;-74
2021/07/31 14:00:14;;;;;;;4.00;1.90;;;23.00;52.20;;;;;;5059005;28;20413;-74
2021/07/31 14:03:00;;;;;;;3.30;1.97;;;23.30;51.20;;;;;;5054155;28;20451;-74
2021/07/31 14:05:45;;;;;;;3.43;1.77;;;23.40;48.40;;;;;;5053483;28;20474;-75
2021/07/31 14:08:31;;;;;;;5.37;1.70;;;23.30;49.40;;;;;;5058046;28;20491;-75
2021/07/31 14:11:17;;;;;;;3.80;1.80;;;23.20;50.70;;;;;;5041777;28;20586;-72
2021/07/31 14:14:04;;;;;;;4.37;1.87;;;23.10;51.10;;;;;;5051658;28;20448;-75
2021/07/31 14:16:49;;;;;;;4.37;2.23;;;23.20;49.40;;;;;;5043976;28;20605;-75
2021/07/31 14:19:35;;;;;;;5.50;2.03;;;23.50;50.70;;;;;;5059342;28;20424;-74
2021/07/31 14:22:21;;;;;;;4.40;2.20;;;23.80;48.20;;;;;;5041672;28;20972;-77
2021/07/31 14:25:08;;;;;;;3.03;1.50;;;23.90;48.90;;;;;;5047266;28;20943;-74
2021/07/31 14:27:53;;;;;;;3.00;1.70;;;24.20;48.90;;;;;;5051651;28;20449;-76
2021/07/31 14:30:41;;;;;;;2.77;1.60;;;24.40;47.10;;;;;;5068382;28;20425;-77
2021/07/31 14:33:26;;;;;;;5.20;1.97;;;23.90;48.30;;;;;;5044933;28;20456;-74